Terminal Aerodrome Forecast
Issued by NWS

Home | Current Version | Previous Version | Text Only | Print | Product List | Glossary On
Versions: 1 2 3 4 5 6 7 8 9 10 11 12 13 14 15 16 17 18 19 20 21 22 23 24 25 26 27 28 29 30 31 32 33 34
000
FTUS43 KGRB 220531
TAFRHI
TAF
KRHI 220531Z 2206/2306 06008KT P6SM SCT012 OVC080
      TEMPO 2206/2210 4SM BR SCT009 OVC010
     FM221000 06009KT 3SM -RASN OVC003
     FM221200 06010G17KT 3SM -SN OVC003
     FM221700 06012G20KT 2SM -SN OVC004
     FM221800 05013G23KT 1/2SM SN OVC003
     FM230000 04011KT 3/4SM -SN OVC003=

USA.gov is the U.S. government's official web portal to all federal, state and local government web resources and services.